VEGT/GAU METAR and TAF weather

Enter ICAO airport designator
Station Type Date Time Source
VEGT METAR 2021/09/20 04:00 UTC NOAA

VEGT 200400Z 00000KT 5000 HZ SCT020 SCT100 31/25 Q1009 NOSIG


Station Type Date Time Source
VEGT Decoded METAR 2021/09/20 04:00 UTC NOAA

Gauhati, India (VEGT) 26-06N 091-35E 54M
Sep 20, 2021 - 12:00 AM EDT / 2021.09.20 0400 UTC
Wind: Calm:0
Visibility: 3 mile(s):0
Sky conditions: partly cloudy
Weather: haze
Temperature: 87 F (31 C)
Heat index: 97.5 F (36.4 C):1
Dew Point: 77 F (25 C)
Relative Humidity: 70%
Pressure (altimeter): 29.80 in. Hg (1009 hPa)
ob: VEGT 200400Z 00000KT 5000 HZ SCT020 SCT100 31/25 Q1009 NOSIG
cycle: 4

Station Type Date Time Source
VEGT TAF 2020/12/17 12:52 UTC NOAA

TAF VEGT 171100Z 1712/1818 03005KT 2000 BR SCT018 BKN100
BECMG 1713/1715 00000KT 1500 BR
BECMG 1800/1802 0800 FG FEW008
BECMG 1803/1805 03004KT 2000 BR SCT018 BKN100
BECMG 1806/1808 34008KT 3000 HZ FEW020
BECMG 1813/1815 00000KT 2000 BR FEW018 SCT100

Example: see airport list